createdAt,value
2023-03-20T00:00:52.323Z,3.75
2023-03-20T00:03:20.461Z,4.00
2023-03-20T00:05:48.255Z,3.45
2023-03-20T00:08:15.989Z,4.20
2023-03-20T00:10:47.302Z,4.60
2023-03-20T00:13:18.872Z,4.97
2023-03-20T00:15:46.870Z,4.60
2023-03-20T00:18:18.232Z,4.60
2023-03-20T00:20:46.929Z,4.22
2023-03-20T00:23:29.495Z,3.95
2023-03-20T00:25:58.633Z,3.00
2023-03-20T00:28:40.993Z,4.43
2023-03-20T00:31:19.388Z,3.15
2023-03-20T00:33:47.109Z,3.28
2023-03-20T00:36:14.988Z,3.20
2023-03-20T00:38:42.738Z,2.65
2023-03-20T00:41:22.745Z,3.28
2023-03-20T00:43:53.383Z,2.97
2023-03-20T00:46:21.266Z,3.53
2023-03-20T00:48:49.587Z,3.80
2023-03-20T00:51:17.555Z,2.78
2023-03-20T00:53:45.284Z,2.80
2023-03-20T00:56:31.964Z,3.78
2023-03-20T00:59:00.949Z,2.65
2023-03-20T01:01:29.488Z,3.40
2023-03-20T01:03:57.389Z,2.03
2023-03-20T01:06:25.099Z,2.35
2023-03-20T01:08:52.805Z,2.17
2023-03-20T01:11:24.464Z,2.45
2023-03-20T01:13:52.443Z,2.63
2023-03-20T01:16:23.491Z,2.70
2023-03-20T01:18:51.860Z,3.67
2023-03-20T01:21:21.220Z,4.22
2023-03-20T01:23:50.674Z,3.10
2023-03-20T01:26:33.050Z,4.28
2023-03-20T01:29:00.997Z,4.07
2023-03-20T01:31:28.804Z,3.80
2023-03-20T01:33:56.981Z,3.80
2023-03-20T01:36:25.204Z,3.50
2023-03-20T01:38:56.712Z,3.80
2023-03-20T01:41:27.584Z,2.92
2023-03-20T01:43:55.313Z,3.17
2023-03-20T01:46:26.429Z,3.40
2023-03-20T01:49:29.793Z,3.50
2023-03-20T01:51:58.437Z,2.40
2023-03-20T01:54:29.872Z,2.38
2023-03-20T01:57:04.912Z,2.80
2023-03-20T01:59:36.692Z,2.88
2023-03-20T02:02:06.084Z,3.70
2023-03-20T02:04:37.910Z,3.05
2023-03-20T02:07:07.592Z,3.20
2023-03-20T02:09:35.267Z,2.88
2023-03-20T02:12:06.012Z,3.08
2023-03-20T02:14:34.045Z,3.15
2023-03-20T02:17:01.867Z,2.50
2023-03-20T02:19:37.454Z,3.05
2023-03-20T02:22:42.253Z,2.80
2023-03-20T02:25:45.457Z,3.15
2023-03-20T02:28:47.005Z,2.80
2023-03-20T02:31:39.951Z,2.20
2023-03-20T02:34:45.892Z,2.38
2023-03-20T02:37:59.296Z,1.52
2023-03-20T02:40:36.069Z,1.40
2023-03-20T02:43:11.026Z,1.35
2023-03-20T02:45:49.287Z,1.10
2023-03-20T02:48:26.933Z,1.15
2023-03-20T02:51:02.814Z,1.10
2023-03-20T02:53:40.908Z,1.15
2023-03-20T02:56:17.421Z,0.85
2023-03-20T02:58:53.545Z,1.02
2023-03-20T03:01:28.146Z,1.08
2023-03-20T03:03:58.380Z,0.80
2023-03-20T03:06:30.090Z,0.90
2023-03-20T03:09:02.993Z,1.00
2023-03-20T03:11:33.999Z,0.80
2023-03-20T03:14:07.519Z,1.08
2023-03-20T03:16:39.328Z,1.00
2023-03-20T03:19:10.597Z,1.40
2023-03-20T03:21:40.399Z,1.40
2023-03-20T03:24:39.282Z,1.45
2023-03-20T03:27:14.805Z,1.60
2023-03-20T03:29:44.180Z,1.30
2023-03-20T03:32:33.267Z,1.30
2023-03-20T03:35:02.595Z,1.27
2023-03-20T03:37:44.711Z,1.40
2023-03-20T03:40:20.991Z,1.70
2023-03-20T03:42:55.246Z,1.30
2023-03-20T03:45:29.804Z,1.40
2023-03-20T03:48:03.374Z,1.00
2023-03-20T03:50:34.431Z,1.27
2023-03-20T03:53:07.621Z,1.48
2023-03-20T03:55:40.913Z,1.35
2023-03-20T03:58:12.948Z,0.90
2023-03-20T04:00:43.621Z,0.90
2023-03-20T04:03:13.367Z,0.80
2023-03-20T04:05:57.927Z,0.70
2023-03-20T04:08:25.954Z,0.80
2023-03-20T04:10:55.078Z,0.80
2023-03-20T04:13:22.788Z,0.90
2023-03-20T04:15:50.597Z,0.80
2023-03-20T04:18:20.182Z,0.80
2023-03-20T04:20:48.485Z,0.90
2023-03-20T04:23:16.340Z,1.00
2023-03-20T04:25:44.060Z,1.30
2023-03-20T04:28:16.292Z,0.90
2023-03-20T04:30:48.213Z,0.88
2023-03-20T04:33:16.462Z,0.90
2023-03-20T04:35:44.273Z,0.80
2023-03-20T04:38:12.028Z,0.90
2023-03-20T04:40:39.812Z,0.90
2023-03-20T04:43:07.490Z,0.80
2023-03-20T04:45:36.835Z,1.02
2023-03-20T04:48:06.018Z,1.08
2023-03-20T04:50:33.833Z,0.95
2023-03-20T04:53:01.630Z,0.88
2023-03-20T04:55:29.388Z,1.00
2023-03-20T04:57:57.169Z,0.90
2023-03-20T05:00:25.352Z,0.93
2023-03-20T05:02:54.521Z,0.90
2023-03-20T05:05:23.677Z,0.90
2023-03-20T05:07:51.716Z,0.95
2023-03-20T05:10:19.812Z,1.05
2023-03-20T05:12:48.510Z,0.95
2023-03-20T05:15:16.335Z,1.10
2023-03-20T05:17:44.077Z,1.42
2023-03-20T05:20:13.644Z,1.10
2023-03-20T05:22:41.401Z,1.10
2023-03-20T05:25:09.877Z,0.90
2023-03-20T05:27:37.678Z,1.00
2023-03-20T05:30:06.519Z,0.93
2023-03-20T05:32:36.194Z,1.10
2023-03-20T05:35:04.747Z,1.08
2023-03-20T05:37:33.820Z,1.02
2023-03-20T05:40:01.536Z,1.40
2023-03-20T05:42:29.234Z,3.00
2023-03-20T05:44:56.947Z,1.13
2023-03-20T05:47:26.215Z,1.40
2023-03-20T05:49:54.172Z,1.05
2023-03-20T05:52:22.012Z,1.17
2023-03-20T05:54:51.235Z,1.63
2023-03-20T05:57:19.374Z,1.35
2023-03-20T05:59:47.184Z,1.35
2023-03-20T06:02:14.935Z,1.30
2023-03-20T06:04:42.634Z,1.88
2023-03-20T06:07:10.533Z,1.30
2023-03-20T06:09:38.304Z,1.50
2023-03-20T06:12:08.058Z,2.10
2023-03-20T06:14:35.892Z,1.50
2023-03-20T06:17:03.551Z,1.25
2023-03-20T06:19:31.445Z,1.23
2023-03-20T06:21:59.161Z,1.40
2023-03-20T06:24:26.944Z,1.60
2023-03-20T06:26:54.898Z,1.37
2023-03-20T06:29:23.986Z,3.60
2023-03-20T06:31:51.814Z,2.30
2023-03-20T06:34:19.615Z,1.50
2023-03-20T06:36:48.522Z,1.25
2023-03-20T06:39:16.664Z,2.00
2023-03-20T06:41:44.450Z,2.13
2023-03-20T06:44:12.806Z,1.50
2023-03-20T06:46:41.945Z,1.58
2023-03-20T06:49:09.715Z,1.58
2023-03-20T06:51:37.598Z,1.80
2023-03-20T06:54:05.658Z,1.38
2023-03-20T06:56:33.543Z,1.93
2023-03-20T06:59:01.340Z,1.63
2023-03-20T07:01:30.025Z,2.03
2023-03-20T07:03:59.145Z,1.63
2023-03-20T07:06:27.591Z,1.43
2023-03-20T07:08:55.464Z,1.50
2023-03-20T07:11:23.679Z,1.90
2023-03-20T07:13:51.897Z,1.73
2023-03-20T07:16:19.797Z,1.27
2023-03-20T07:18:47.997Z,1.17
2023-03-20T07:21:21.416Z,1.33
2023-03-20T07:23:49.218Z,1.63
2023-03-20T07:26:17.596Z,1.40
2023-03-20T07:28:45.387Z,1.43
2023-03-20T07:31:23.556Z,1.50
2023-03-20T07:33:51.528Z,1.30
2023-03-20T07:36:21.286Z,1.40
2023-03-20T07:38:49.228Z,1.57
2023-03-20T07:41:16.940Z,1.17
2023-03-20T07:43:44.973Z,1.50
2023-03-20T07:46:13.274Z,1.77
2023-03-20T07:48:41.096Z,1.40
2023-03-20T07:51:10.303Z,1.57
2023-03-20T07:53:55.514Z,1.60
2023-03-20T07:56:25.276Z,1.53
2023-03-20T07:58:53.123Z,1.63
2023-03-20T08:01:20.984Z,1.43
2023-03-20T08:03:48.959Z,1.40
2023-03-20T08:06:17.172Z,1.60
2023-03-20T08:08:46.311Z,1.50
2023-03-20T08:11:14.104Z,1.50
2023-03-20T08:13:41.833Z,1.40
2023-03-20T08:16:10.837Z,1.30
2023-03-20T08:18:38.984Z,1.70
2023-03-20T08:21:07.460Z,1.53
2023-03-20T08:23:35.321Z,1.47
2023-03-20T08:26:04.612Z,1.70
2023-03-20T08:28:46.700Z,1.50
2023-03-20T08:31:16.652Z,1.70
2023-03-20T08:33:44.660Z,1.50
2023-03-20T08:36:15.163Z,1.50
2023-03-20T08:38:43.328Z,1.63
2023-03-20T08:41:12.494Z,1.93
2023-03-20T08:43:40.350Z,1.10
2023-03-20T08:46:08.731Z,1.47
2023-03-20T08:48:36.941Z,1.47
2023-03-20T08:51:06.077Z,1.27
2023-03-20T08:53:34.041Z,1.20
2023-03-20T08:56:01.869Z,1.30
2023-03-20T08:58:31.097Z,1.07
2023-03-20T09:01:02.995Z,2.00
2023-03-20T09:03:31.805Z,2.57
2023-03-20T09:05:59.652Z,1.53
2023-03-20T09:08:27.611Z,1.70
2023-03-20T09:10:55.546Z,1.17
2023-03-20T09:13:27.683Z,1.10
2023-03-20T09:15:58.481Z,1.40
2023-03-20T09:18:26.598Z,1.30
2023-03-20T09:20:56.628Z,1.60
2023-03-20T09:23:24.915Z,1.20
2023-03-20T09:25:52.865Z,1.20
2023-03-20T09:28:20.891Z,1.30
2023-03-20T09:30:49.472Z,1.50
2023-03-20T09:33:19.426Z,1.50
2023-03-20T09:35:47.545Z,1.67
2023-03-20T09:38:15.674Z,1.80
2023-03-20T09:40:52.582Z,1.77
2023-03-20T09:43:45.385Z,1.60
2023-03-20T09:46:33.576Z,2.97
2023-03-20T09:49:13.535Z,1.70
2023-03-20T09:51:46.992Z,1.50
2023-03-20T09:54:22.897Z,2.00
2023-03-20T09:56:51.972Z,1.70
2023-03-20T09:59:21.606Z,2.00
2023-03-20T10:01:52.980Z,2.13
2023-03-20T10:04:25.039Z,1.83
2023-03-20T10:06:53.283Z,2.13
2023-03-20T10:09:24.831Z,1.83
2023-03-20T10:12:11.629Z,1.63
2023-03-20T10:14:50.422Z,2.33
2023-03-20T10:17:30.800Z,2.00
2023-03-20T10:20:04.867Z,1.90
2023-03-20T10:22:36.594Z,1.80
2023-03-20T10:25:09.772Z,1.40
2023-03-20T10:27:42.896Z,1.60
2023-03-20T10:30:27.784Z,2.33
2023-03-20T10:33:07.094Z,3.20
2023-03-20T10:35:44.445Z,1.70
2023-03-20T10:38:26.016Z,1.40
2023-03-20T10:40:57.888Z,1.30
2023-03-20T10:43:30.825Z,1.60
2023-03-20T10:46:03.805Z,1.17
2023-03-20T10:48:37.841Z,1.33
2023-03-20T10:51:14.441Z,1.50
2023-03-20T10:53:47.665Z,1.30
2023-03-20T10:56:21.383Z,1.67
2023-03-20T10:58:55.512Z,1.63
2023-03-20T11:01:23.343Z,1.70
2023-03-20T11:03:51.199Z,1.50
2023-03-20T11:06:28.800Z,1.60
2023-03-20T11:08:58.430Z,1.83
2023-03-20T11:11:28.159Z,1.80
2023-03-20T11:13:57.036Z,1.77
2023-03-20T11:16:28.364Z,1.53
2023-03-20T11:18:56.794Z,1.53
2023-03-20T11:21:28.192Z,2.40
2023-03-20T11:23:56.996Z,2.33
2023-03-20T11:26:37.213Z,2.70
2023-03-20T11:29:07.893Z,3.33
2023-03-20T11:31:38.245Z,3.40
2023-03-20T11:34:26.743Z,4.17
2023-03-20T11:37:16.434Z,4.27
2023-03-20T11:39:55.135Z,3.83
2023-03-20T11:42:24.959Z,4.03
2023-03-20T11:45:00.237Z,4.33
2023-03-20T11:47:32.145Z,4.80
2023-03-20T11:50:02.008Z,4.50
2023-03-20T11:52:34.623Z,3.90
2023-03-20T11:55:06.772Z,3.73
2023-03-20T11:57:37.066Z,3.77
2023-03-20T12:00:17.553Z,3.87
2023-03-20T12:02:46.208Z,4.07
2023-03-20T12:05:30.724Z,4.40
2023-03-20T12:08:04.919Z,4.40
2023-03-20T12:10:39.736Z,4.07
2023-03-20T12:13:16.103Z,4.00
2023-03-20T12:15:48.988Z,4.10
2023-03-20T12:18:28.993Z,3.87
2023-03-20T12:21:09.045Z,4.07
2023-03-20T12:23:43.105Z,4.70
2023-03-20T12:26:14.968Z,3.50
2023-03-20T12:28:48.817Z,3.60
2023-03-20T12:31:25.034Z,3.40
2023-03-20T12:33:58.401Z,4.00
2023-03-20T12:36:32.476Z,3.60
2023-03-20T12:39:05.494Z,2.90
2023-03-20T12:41:42.104Z,3.00
2023-03-20T12:44:33.236Z,2.80
2023-03-20T12:47:36.096Z,3.40
2023-03-20T12:50:12.583Z,3.03
2023-03-20T12:52:53.175Z,3.53
2023-03-20T12:55:32.760Z,3.67
2023-03-20T12:58:08.787Z,3.93
2023-03-20T13:00:42.508Z,9.67
2023-03-20T13:03:24.985Z,4.00
2023-03-20T13:06:03.111Z,3.37
2023-03-20T13:08:55.157Z,3.43
2023-03-20T13:11:32.421Z,3.20
2023-03-20T13:14:05.602Z,3.33
2023-03-20T13:16:46.899Z,3.53
2023-03-20T13:19:25.481Z,3.83
2023-03-20T13:21:57.342Z,4.13
2023-03-20T13:24:38.153Z,4.20
2023-03-20T13:27:21.436Z,4.20
2023-03-20T13:29:54.112Z,3.90
2023-03-20T13:32:32.877Z,3.93
2023-03-20T13:35:14.656Z,4.60
2023-03-20T13:37:45.487Z,4.83
2023-03-20T13:40:20.160Z,4.90
2023-03-20T13:42:55.033Z,4.43
2023-03-20T13:45:32.023Z,3.43
2023-03-20T13:48:05.434Z,3.90
2023-03-20T13:50:45.877Z,3.47
2023-03-20T13:53:31.404Z,4.47
2023-03-20T13:56:13.892Z,4.20
2023-03-20T13:59:01.109Z,3.10
2023-03-20T14:01:38.557Z,4.20
2023-03-20T14:04:10.519Z,4.17
2023-03-20T14:06:53.203Z,4.33
2023-03-20T14:09:33.258Z,3.10
2023-03-20T14:12:05.338Z,3.40
2023-03-20T14:14:42.847Z,3.60
2023-03-20T14:17:18.003Z,3.50
2023-03-20T14:19:47.034Z,3.60
2023-03-20T14:22:21.030Z,3.67
2023-03-20T14:24:57.118Z,3.30
2023-03-20T14:27:44.804Z,3.63
2023-03-20T14:30:40.752Z,3.47
2023-03-20T14:33:24.582Z,3.20
2023-03-20T14:36:12.873Z,3.60
2023-03-20T14:38:53.681Z,3.43
2023-03-20T14:41:28.073Z,3.20
2023-03-20T14:44:03.842Z,2.97
2023-03-20T14:46:44.464Z,2.60
2023-03-20T14:49:35.508Z,3.43
2023-03-20T14:52:22.374Z,2.90
2023-03-20T14:54:54.266Z,2.87
2023-03-20T14:57:35.736Z,3.03
2023-03-20T15:00:19.541Z,2.70
2023-03-20T15:02:52.463Z,2.80
2023-03-20T15:05:29.231Z,2.93
2023-03-20T15:07:58.817Z,3.40
2023-03-20T15:10:27.125Z,3.30
2023-03-20T15:12:55.808Z,3.27
2023-03-20T15:15:26.687Z,3.57
2023-03-20T15:17:56.044Z,3.13
2023-03-20T15:20:25.861Z,3.30
2023-03-20T15:22:57.768Z,2.60
2023-03-20T15:25:30.347Z,2.17
2023-03-20T15:27:58.354Z,2.37
2023-03-20T15:30:26.636Z,2.43
2023-03-20T15:32:56.485Z,2.50
2023-03-20T15:35:27.199Z,2.70
2023-03-20T15:37:58.015Z,2.23
2023-03-20T15:40:37.117Z,2.73
2023-03-20T15:43:15.714Z,2.00
2023-03-20T15:45:44.823Z,2.13
2023-03-20T15:48:18.420Z,2.30
2023-03-20T15:50:50.346Z,2.20
2023-03-20T15:53:20.892Z,2.90
2023-03-20T15:55:51.132Z,2.13
2023-03-20T15:58:19.570Z,2.13
2023-03-20T16:00:49.494Z,1.90
2023-03-20T16:03:38.014Z,1.63
2023-03-20T16:06:10.884Z,1.17
2023-03-20T16:08:39.183Z,1.50
2023-03-20T16:11:09.035Z,1.20
2023-03-20T16:13:40.901Z,1.57
2023-03-20T16:16:13.297Z,1.27
2023-03-20T16:18:43.170Z,1.70
2023-03-20T16:21:16.430Z,1.13
2023-03-20T16:23:47.910Z,1.07
2023-03-20T16:26:18.882Z,1.43
2023-03-20T16:28:48.222Z,1.07
2023-03-20T16:31:18.995Z,1.50
2023-03-20T16:33:48.953Z,1.53
2023-03-20T16:36:18.884Z,1.70
2023-03-20T16:38:56.950Z,1.17
2023-03-20T16:41:30.397Z,1.40
2023-03-20T16:43:58.829Z,1.33
2023-03-20T16:46:28.059Z,1.60
2023-03-20T16:48:58.390Z,1.37
2023-03-20T16:51:28.263Z,1.23
2023-03-20T16:53:57.866Z,1.20
2023-03-20T16:56:29.524Z,1.40
2023-03-20T16:58:58.028Z,1.53
2023-03-20T17:01:30.178Z,1.73
2023-03-20T17:04:12.949Z,1.60
2023-03-20T17:06:47.415Z,1.40
2023-03-20T17:09:21.725Z,2.30
2023-03-20T17:11:51.598Z,1.30
2023-03-20T17:14:19.346Z,1.80
2023-03-20T17:16:47.923Z,1.87
2023-03-20T17:19:19.380Z,2.80
2023-03-20T17:21:47.827Z,1.40
2023-03-20T17:24:17.933Z,1.80
2023-03-20T17:26:51.458Z,1.63
2023-03-20T17:29:19.479Z,2.20
2023-03-20T17:31:47.619Z,1.30
2023-03-20T17:34:17.090Z,1.53
2023-03-20T17:36:46.275Z,1.30
2023-03-20T17:39:19.626Z,1.50
2023-03-20T17:41:47.782Z,1.50
2023-03-20T17:44:15.729Z,1.40
2023-03-20T17:46:57.366Z,1.63
2023-03-20T17:49:28.481Z,1.57
2023-03-20T17:51:57.102Z,1.20
2023-03-20T17:54:25.120Z,1.80
2023-03-20T17:56:52.945Z,1.70
2023-03-20T17:59:20.923Z,1.47
2023-03-20T18:01:48.964Z,1.73
2023-03-20T18:04:17.099Z,1.70
2023-03-20T18:06:47.849Z,1.70
2023-03-20T18:09:16.953Z,1.53
2023-03-20T18:11:44.778Z,1.37
2023-03-20T18:14:12.822Z,1.40
2023-03-20T18:16:40.797Z,1.77
2023-03-20T18:19:15.834Z,1.70
2023-03-20T18:21:43.580Z,1.93
2023-03-20T18:24:12.945Z,1.80
2023-03-20T18:26:40.881Z,1.90
2023-03-20T18:29:11.235Z,1.53
2023-03-20T18:31:42.246Z,2.13
2023-03-20T18:34:10.448Z,1.70
2023-03-20T18:36:38.468Z,1.80
2023-03-20T18:39:07.269Z,1.73
2023-03-20T18:41:36.385Z,1.50
2023-03-20T18:44:04.149Z,1.87
2023-03-20T18:46:32.444Z,1.67
2023-03-20T18:49:00.404Z,1.60
2023-03-20T18:51:28.116Z,1.80
2023-03-20T18:53:55.926Z,1.93
2023-03-20T18:56:25.934Z,1.60
2023-03-20T18:58:55.649Z,1.63
2023-03-20T19:01:23.729Z,1.57
2023-03-20T19:03:53.949Z,1.70
2023-03-20T19:06:23.851Z,2.20
2023-03-20T19:08:53.001Z,2.63
2023-03-20T19:11:21.912Z,1.87
2023-03-20T19:13:52.584Z,2.00
2023-03-20T19:16:25.589Z,1.80
2023-03-20T19:18:54.792Z,3.50
2023-03-20T19:21:26.381Z,2.90
2023-03-20T19:23:54.765Z,2.47
2023-03-20T19:26:24.644Z,2.67
2023-03-20T19:28:53.580Z,3.20
2023-03-20T19:31:23.570Z,2.40
2023-03-20T19:33:52.177Z,2.80
2023-03-20T19:36:26.988Z,3.13
2023-03-20T19:38:55.795Z,2.70
2023-03-20T19:41:23.753Z,2.27
2023-03-20T19:43:54.123Z,2.60
2023-03-20T19:46:39.589Z,2.30
2023-03-20T19:49:21.394Z,2.80
2023-03-20T19:51:50.588Z,3.00
2023-03-20T19:54:18.892Z,2.73
2023-03-20T19:56:47.305Z,2.47
2023-03-20T19:59:16.915Z,2.83
2023-03-20T20:01:47.134Z,3.00
2023-03-20T20:04:15.293Z,2.70
2023-03-20T20:06:43.159Z,2.40
2023-03-20T20:09:11.008Z,3.00
2023-03-20T20:11:38.965Z,2.90
2023-03-20T20:14:09.768Z,3.40
2023-03-20T20:16:39.909Z,3.00
2023-03-20T20:19:09.988Z,3.17
2023-03-20T20:24:25.698Z,2.60
2023-03-20T20:27:14.669Z,2.57
2023-03-20T20:29:43.436Z,2.90
2023-03-20T20:32:11.610Z,2.17
2023-03-20T20:40:20.029Z,2.63
2023-03-20T20:42:51.452Z,2.45
2023-03-20T20:45:20.531Z,2.87
2023-03-20T20:47:48.854Z,2.77
2023-03-20T20:50:22.149Z,3.20
2023-03-20T20:52:50.679Z,2.40
2023-03-20T20:55:23.530Z,2.80
2023-03-20T20:57:53.102Z,2.25
2023-03-20T21:00:27.543Z,2.60
2023-03-20T21:02:57.652Z,2.65
2023-03-20T21:05:27.600Z,2.90
2023-03-20T21:07:55.612Z,2.90
2023-03-20T21:10:23.629Z,2.97
2023-03-20T21:12:59.570Z,2.90
2023-03-20T21:15:28.306Z,2.40
2023-03-20T21:18:03.417Z,2.17
2023-03-20T21:20:33.404Z,2.07
2023-03-20T21:23:02.317Z,2.10
2023-03-20T21:25:40.001Z,2.37
2023-03-20T21:28:10.450Z,1.80
2023-03-20T21:30:46.776Z,2.92
2023-03-20T21:33:29.696Z,2.92
2023-03-20T21:35:59.056Z,3.07
2023-03-20T21:39:01.872Z,3.23
2023-03-20T21:41:16.641Z,3.23
2023-03-20T21:43:47.064Z,3.50
2023-03-20T21:52:41.950Z,3.60
2023-03-20T21:58:10.387Z,2.47
2023-03-20T22:03:10.809Z,3.33
2023-03-20T22:06:21.088Z,3.23
2023-03-20T22:09:30.926Z,3.70
2023-03-20T22:12:01.768Z,3.10
2023-03-20T22:14:56.786Z,3.40
2023-03-20T22:17:52.290Z,3.60
2023-03-20T22:29:03.176Z,2.47
2023-03-20T22:37:24.604Z,3.05
2023-03-20T22:42:48.891Z,2.83
2023-03-20T22:45:05.462Z,3.20
2023-03-20T22:47:34.071Z,3.00
2023-03-20T22:50:01.814Z,3.30
2023-03-20T22:52:41.997Z,2.90
2023-03-20T22:55:13.759Z,3.20
2023-03-20T22:57:52.804Z,3.50
2023-03-20T23:00:28.192Z,3.27
2023-03-20T23:03:06.767Z,3.50
2023-03-20T23:05:42.019Z,3.10
2023-03-20T23:08:11.980Z,2.80
2023-03-20T23:10:44.504Z,2.53
2023-03-20T23:13:14.711Z,2.67
2023-03-20T23:15:42.832Z,3.07
2023-03-20T23:18:10.970Z,3.10
2023-03-20T23:20:38.946Z,3.00
2023-03-20T23:23:06.829Z,2.90
2023-03-20T23:25:40.681Z,2.90
2023-03-20T23:28:09.024Z,2.87
2023-03-20T23:30:46.589Z,2.67
2023-03-20T23:33:17.662Z,2.80
2023-03-20T23:35:46.360Z,2.40
2023-03-20T23:38:14.133Z,2.70
2023-03-20T23:40:42.117Z,3.23
2023-03-20T23:43:09.920Z,2.70
2023-03-20T23:45:39.350Z,2.93
2023-03-20T23:48:07.575Z,3.10
2023-03-20T23:50:51.585Z,3.07
2023-03-20T23:53:21.168Z,3.00
2023-03-20T23:55:50.686Z,3.13
2023-03-20T23:58:19.115Z,2.37
